<?xml version="1.0" encoding="UTF-8" standalone="no" ?>
<gpx xmlns="http://www.topografix.com/GPX/1/1" xmlns:xsi="http://www.w3.org/2001/XMLSchema-instance" xsi:schemaLocation="http://www.topografix.com/GPX/1/1 http://www.topografix.com/GPX/1/1/gpx.xsd" version="1.1" creator="VisuGPX - https://www.visugpx.com">
  <metadata>
    <name>Turquie_100points</name>
  </metadata>
  <trk>
    <name><![CDATA[Tour d'Europe: étape 523]]></name>
    <extensions>
      <line xmlns="http://www.topografix.com/GPX/gpx_style/0/2">
        <color>00FFFF</color>
        <width>4</width>
      </line>
    </extensions>
    <trkseg>
      <trkpt lat="40.81995" lon="41.5432">
        <ele>691.433654</ele>
        <time>2021-12-03T06:10:49.402Z</time>
      </trkpt>
      <trkpt lat="40.82025" lon="41.54388">
        <ele>649.979385</ele>
        <time>2021-12-03T06:18:48.443Z</time>
      </trkpt>
      <trkpt lat="40.81831" lon="41.54523">
        <ele>648.58582</ele>
        <time>2021-12-03T06:19:49.443Z</time>
      </trkpt>
      <trkpt lat="40.81678" lon="41.54737">
        <ele>637.803761</ele>
        <time>2021-12-03T06:20:50.455Z</time>
      </trkpt>
      <trkpt lat="40.81478" lon="41.54841">
        <ele>622.131726</ele>
        <time>2021-12-03T06:21:44.455Z</time>
      </trkpt>
      <trkpt lat="40.81283" lon="41.54968">
        <ele>614.396951</ele>
        <time>2021-12-03T06:22:47.455Z</time>
      </trkpt>
      <trkpt lat="40.8109" lon="41.55141">
        <ele>607.368187</ele>
        <time>2021-12-03T06:23:48.442Z</time>
      </trkpt>
      <trkpt lat="40.81119" lon="41.55416">
        <ele>606.644143</ele>
        <time>2021-12-03T06:24:39.443Z</time>
      </trkpt>
      <trkpt lat="40.81261" lon="41.55654">
        <ele>610.020872</ele>
        <time>2021-12-03T06:25:32.452Z</time>
      </trkpt>
      <trkpt lat="40.81213" lon="41.55932">
        <ele>607.672394</ele>
        <time>2021-12-03T06:26:24.443Z</time>
      </trkpt>
      <trkpt lat="40.81126" lon="41.56199">
        <ele>605.042608</ele>
        <time>2021-12-03T06:27:14.506Z</time>
      </trkpt>
      <trkpt lat="40.81095" lon="41.56491">
        <ele>602.889351</ele>
        <time>2021-12-03T06:28:03.455Z</time>
      </trkpt>
      <trkpt lat="40.81053" lon="41.56788">
        <ele>603.602665</ele>
        <time>2021-12-03T06:29:03.442Z</time>
      </trkpt>
      <trkpt lat="40.81032" lon="41.57062">
        <ele>602.673981</ele>
        <time>2021-12-03T06:30:14.488Z</time>
      </trkpt>
      <trkpt lat="40.81006" lon="41.57349">
        <ele>602.359708</ele>
        <time>2021-12-03T06:31:15.456Z</time>
      </trkpt>
      <trkpt lat="40.81022" lon="41.57643">
        <ele>601.52997</ele>
        <time>2021-12-03T06:31:57.443Z</time>
      </trkpt>
      <trkpt lat="40.8105" lon="41.57955">
        <ele>604.17914</ele>
        <time>2021-12-03T06:32:40.454Z</time>
      </trkpt>
      <trkpt lat="40.80971" lon="41.58215">
        <ele>594.200088</ele>
        <time>2021-12-03T06:33:28.467Z</time>
      </trkpt>
      <trkpt lat="40.80937" lon="41.5852">
        <ele>589.669315</ele>
        <time>2021-12-03T06:34:20.446Z</time>
      </trkpt>
      <trkpt lat="40.80996" lon="41.58779">
        <ele>593.082947</ele>
        <time>2021-12-03T06:35:20.448Z</time>
      </trkpt>
      <trkpt lat="40.81139" lon="41.59084">
        <ele>592.891109</ele>
        <time>2021-12-03T06:36:04.450Z</time>
      </trkpt>
      <trkpt lat="40.81079" lon="41.59362">
        <ele>594.134888</ele>
        <time>2021-12-03T06:37:13.452Z</time>
      </trkpt>
      <trkpt lat="40.81132" lon="41.59619">
        <ele>593.295894</ele>
        <time>2021-12-03T06:38:10.452Z</time>
      </trkpt>
      <trkpt lat="40.81324" lon="41.5989">
        <ele>588.966261</ele>
        <time>2021-12-03T06:38:52.480Z</time>
      </trkpt>
      <trkpt lat="40.81399" lon="41.60181">
        <ele>584.910654</ele>
        <time>2021-12-03T06:39:47.438Z</time>
      </trkpt>
      <trkpt lat="40.81498" lon="41.60485">
        <ele>571.756903</ele>
        <time>2021-12-03T06:40:34.478Z</time>
      </trkpt>
      <trkpt lat="40.81635" lon="41.60735">
        <ele>572.468744</ele>
        <time>2021-12-03T06:41:23.452Z</time>
      </trkpt>
      <trkpt lat="40.81722" lon="41.61001">
        <ele>571.602242</ele>
        <time>2021-12-03T06:42:12.451Z</time>
      </trkpt>
      <trkpt lat="40.81726" lon="41.61281">
        <ele>568.885169</ele>
        <time>2021-12-03T06:43:15.454Z</time>
      </trkpt>
      <trkpt lat="40.81751" lon="41.61559">
        <ele>568.93377</ele>
        <time>2021-12-03T06:46:06.444Z</time>
      </trkpt>
      <trkpt lat="40.81741" lon="41.61886">
        <ele>564.79097</ele>
        <time>2021-12-03T06:47:01.459Z</time>
      </trkpt>
      <trkpt lat="40.8169" lon="41.62172">
        <ele>562.677097</ele>
        <time>2021-12-03T06:47:50.450Z</time>
      </trkpt>
      <trkpt lat="40.81548" lon="41.62371">
        <ele>563.627612</ele>
        <time>2021-12-03T06:48:49.479Z</time>
      </trkpt>
      <trkpt lat="40.81234" lon="41.62861">
        <ele>571.203829</ele>
        <time>2021-12-03T06:51:09.441Z</time>
      </trkpt>
      <trkpt lat="40.80975" lon="41.63845">
        <ele>565.537264</ele>
        <time>2021-12-03T06:54:20.445Z</time>
      </trkpt>
      <trkpt lat="40.80422" lon="41.64836">
        <ele>563.130114</ele>
        <time>2021-12-03T06:57:52.442Z</time>
      </trkpt>
      <trkpt lat="40.80082" lon="41.6535">
        <ele>563.078619</ele>
        <time>2021-12-03T06:59:54.464Z</time>
      </trkpt>
      <trkpt lat="40.80108" lon="41.6561">
        <ele>572.657695</ele>
        <time>2021-12-03T07:00:51.447Z</time>
      </trkpt>
      <trkpt lat="40.80265" lon="41.65721">
        <ele>570.834031</ele>
        <time>2021-12-03T07:01:47.467Z</time>
      </trkpt>
      <trkpt lat="40.80269" lon="41.6599">
        <ele>565.595097</ele>
        <time>2021-12-03T07:02:52.455Z</time>
      </trkpt>
      <trkpt lat="40.80069" lon="41.66142">
        <ele>554.937788</ele>
        <time>2021-12-03T07:03:52.442Z</time>
      </trkpt>
      <trkpt lat="40.79872" lon="41.66257">
        <ele>571.211829</ele>
        <time>2021-12-03T07:05:03.454Z</time>
      </trkpt>
      <trkpt lat="40.79679" lon="41.66391">
        <ele>578.414572</ele>
        <time>2021-12-03T07:06:21.472Z</time>
      </trkpt>
      <trkpt lat="40.79525" lon="41.66592">
        <ele>569.042172</ele>
        <time>2021-12-03T07:07:32.464Z</time>
      </trkpt>
      <trkpt lat="40.79546" lon="41.66841">
        <ele>581.541281</ele>
        <time>2021-12-03T07:08:36.468Z</time>
      </trkpt>
      <trkpt lat="40.79557" lon="41.67092">
        <ele>576.978118</ele>
        <time>2021-12-03T07:09:25.472Z</time>
      </trkpt>
      <trkpt lat="40.79469" lon="41.67344">
        <ele>574.725058</ele>
        <time>2021-12-03T07:10:27.448Z</time>
      </trkpt>
      <trkpt lat="40.79374" lon="41.67604">
        <ele>576.703298</ele>
        <time>2021-12-03T07:11:38.469Z</time>
      </trkpt>
      <trkpt lat="40.79273" lon="41.67839">
        <ele>581.334751</ele>
        <time>2021-12-03T07:12:57.462Z</time>
      </trkpt>
      <trkpt lat="40.7915" lon="41.68016">
        <ele>581.439908</ele>
        <time>2021-12-03T07:13:53.456Z</time>
      </trkpt>
      <trkpt lat="40.78944" lon="41.68025">
        <ele>582.45301</ele>
        <time>2021-12-03T07:15:06.456Z</time>
      </trkpt>
      <trkpt lat="40.78807" lon="41.68231">
        <ele>576.631313</ele>
        <time>2021-12-03T07:16:06.484Z</time>
      </trkpt>
      <trkpt lat="40.78631" lon="41.68419">
        <ele>580.271334</ele>
        <time>2021-12-03T07:17:07.497Z</time>
      </trkpt>
      <trkpt lat="40.78428" lon="41.68448">
        <ele>582.818908</ele>
        <time>2021-12-03T07:18:18.457Z</time>
      </trkpt>
      <trkpt lat="40.78257" lon="41.68578">
        <ele>588.862045</ele>
        <time>2021-12-03T07:19:27.443Z</time>
      </trkpt>
      <trkpt lat="40.78309" lon="41.6882">
        <ele>596.694673</ele>
        <time>2021-12-03T07:20:51.473Z</time>
      </trkpt>
      <trkpt lat="40.78437" lon="41.69017">
        <ele>592.487535</ele>
        <time>2021-12-03T07:22:02.469Z</time>
      </trkpt>
      <trkpt lat="40.78339" lon="41.69271">
        <ele>597.67068</ele>
        <time>2021-12-03T07:23:14.474Z</time>
      </trkpt>
      <trkpt lat="40.78322" lon="41.69533">
        <ele>604.454701</ele>
        <time>2021-12-03T07:24:26.452Z</time>
      </trkpt>
      <trkpt lat="40.78234" lon="41.69678">
        <ele>601.91256</ele>
        <time>2021-12-03T07:25:30.472Z</time>
      </trkpt>
      <trkpt lat="40.78015" lon="41.69728">
        <ele>603.045154</ele>
        <time>2021-12-03T07:26:44.467Z</time>
      </trkpt>
      <trkpt lat="40.77848" lon="41.6989">
        <ele>605.405528</ele>
        <time>2021-12-03T07:28:05.446Z</time>
      </trkpt>
      <trkpt lat="40.77823" lon="41.70135">
        <ele>610.585077</ele>
        <time>2021-12-03T07:44:52.145Z</time>
      </trkpt>
      <trkpt lat="40.77681" lon="41.70269">
        <ele>609.089303</ele>
        <time>2021-12-03T07:46:16.143Z</time>
      </trkpt>
      <trkpt lat="40.77501" lon="41.7014">
        <ele>617.036604</ele>
        <time>2021-12-03T07:47:58.144Z</time>
      </trkpt>
      <trkpt lat="40.77349" lon="41.69951">
        <ele>622.601691</ele>
        <time>2021-12-03T07:49:23.170Z</time>
      </trkpt>
      <trkpt lat="40.77219" lon="41.69737">
        <ele>625.126467</ele>
        <time>2021-12-03T07:50:39.229Z</time>
      </trkpt>
      <trkpt lat="40.77102" lon="41.69476">
        <ele>625.799863</ele>
        <time>2021-12-03T07:51:43.134Z</time>
      </trkpt>
      <trkpt lat="40.7698" lon="41.69265">
        <ele>629.10907</ele>
        <time>2021-12-03T07:52:44.134Z</time>
      </trkpt>
      <trkpt lat="40.76827" lon="41.69094">
        <ele>633.609271</ele>
        <time>2021-12-03T07:54:11.145Z</time>
      </trkpt>
      <trkpt lat="40.76661" lon="41.68941">
        <ele>644.501686</ele>
        <time>2021-12-03T07:55:58.185Z</time>
      </trkpt>
      <trkpt lat="40.76493" lon="41.68799">
        <ele>650.347668</ele>
        <time>2021-12-03T07:57:29.145Z</time>
      </trkpt>
      <trkpt lat="40.76352" lon="41.68615">
        <ele>652.422664</ele>
        <time>2021-12-03T07:59:01.165Z</time>
      </trkpt>
      <trkpt lat="40.7627" lon="41.68347">
        <ele>647.339173</ele>
        <time>2021-12-03T08:00:09.195Z</time>
      </trkpt>
      <trkpt lat="40.76244" lon="41.68059">
        <ele>650.541316</ele>
        <time>2021-12-03T08:01:14.170Z</time>
      </trkpt>
      <trkpt lat="40.76121" lon="41.67879">
        <ele>661.277663</ele>
        <time>2021-12-03T08:02:37.152Z</time>
      </trkpt>
      <trkpt lat="40.75946" lon="41.67754">
        <ele>673.849535</ele>
        <time>2021-12-03T08:04:36.149Z</time>
      </trkpt>
      <trkpt lat="40.75769" lon="41.67615">
        <ele>683.026676</ele>
        <time>2021-12-03T08:06:26.183Z</time>
      </trkpt>
      <trkpt lat="40.75585" lon="41.67525">
        <ele>695.986818</ele>
        <time>2021-12-03T08:08:28.149Z</time>
      </trkpt>
      <trkpt lat="40.754" lon="41.67442">
        <ele>707.197937</ele>
        <time>2021-12-03T08:10:54.153Z</time>
      </trkpt>
      <trkpt lat="40.75209" lon="41.67327">
        <ele>709.630068</ele>
        <time>2021-12-03T08:12:07.143Z</time>
      </trkpt>
      <trkpt lat="40.75011" lon="41.6735">
        <ele>714.351447</ele>
        <time>2021-12-03T08:13:49.151Z</time>
      </trkpt>
      <trkpt lat="40.74813" lon="41.67326">
        <ele>718.116522</ele>
        <time>2021-12-03T08:15:21.162Z</time>
      </trkpt>
      <trkpt lat="40.74656" lon="41.67147">
        <ele>711.251182</ele>
        <time>2021-12-03T08:16:04.155Z</time>
      </trkpt>
      <trkpt lat="40.74399" lon="41.67009">
        <ele>702.405129</ele>
        <time>2021-12-03T08:16:46.155Z</time>
      </trkpt>
      <trkpt lat="40.74205" lon="41.66859">
        <ele>700.508245</ele>
        <time>2021-12-03T08:17:30.165Z</time>
      </trkpt>
      <trkpt lat="40.74037" lon="41.66675">
        <ele>700.890027</ele>
        <time>2021-12-03T08:18:30.153Z</time>
      </trkpt>
      <trkpt lat="40.73846" lon="41.66534">
        <ele>693.319674</ele>
        <time>2021-12-03T08:19:39.149Z</time>
      </trkpt>
      <trkpt lat="40.73648" lon="41.66514">
        <ele>691.553943</ele>
        <time>2021-12-03T08:21:00.154Z</time>
      </trkpt>
      <trkpt lat="40.73453" lon="41.66486">
        <ele>718.634099</ele>
        <time>2021-12-03T08:22:09.157Z</time>
      </trkpt>
      <trkpt lat="40.73242" lon="41.66491">
        <ele>743.896983</ele>
        <time>2021-12-03T08:23:24.158Z</time>
      </trkpt>
      <trkpt lat="40.73029" lon="41.66507">
        <ele>741.098671</ele>
        <time>2021-12-03T08:24:48.160Z</time>
      </trkpt>
      <trkpt lat="40.72809" lon="41.66577">
        <ele>747.06738</ele>
        <time>2021-12-03T08:26:11.192Z</time>
      </trkpt>
      <trkpt lat="40.72635" lon="41.66702">
        <ele>743.145564</ele>
        <time>2021-12-03T08:27:26.179Z</time>
      </trkpt>
      <trkpt lat="40.72454" lon="41.66834">
        <ele>729.620544</ele>
        <time>2021-12-03T08:28:55.168Z</time>
      </trkpt>
      <trkpt lat="40.72332" lon="41.67041">
        <ele>745.257595</ele>
        <time>2021-12-03T08:30:40.157Z</time>
      </trkpt>
      <trkpt lat="40.72177" lon="41.67186">
        <ele>750.667803</ele>
        <time>2021-12-03T08:32:40.167Z</time>
      </trkpt>
      <trkpt lat="40.71964" lon="41.67151">
        <ele>745.956246</ele>
        <time>2021-12-03T08:33:47.167Z</time>
      </trkpt>
      <trkpt lat="40.71758" lon="41.67256">
        <ele>736.524656</ele>
        <time>2021-12-03T08:34:46.181Z</time>
      </trkpt>
      <trkpt lat="40.71691" lon="41.67542">
        <ele>744.056896</ele>
        <time>2021-12-03T08:35:41.175Z</time>
      </trkpt>
      <trkpt lat="40.71553" lon="41.67764">
        <ele>723.080367</ele>
        <time>2021-12-03T08:36:52.171Z</time>
      </trkpt>
      <trkpt lat="40.71523" lon="41.6805">
        <ele>718.777413</ele>
        <time>2021-12-03T08:38:02.157Z</time>
      </trkpt>
      <trkpt lat="40.71322" lon="41.68067">
        <ele>759.342369</ele>
        <time>2021-12-03T08:39:17.168Z</time>
      </trkpt>
      <trkpt lat="40.71187" lon="41.67882">
        <ele>771.498213</ele>
        <time>2021-12-03T08:40:32.145Z</time>
      </trkpt>
      <trkpt lat="40.71016" lon="41.6782">
        <ele>700.552939</ele>
        <time>2021-12-03T08:57:22.267Z</time>
      </trkpt>
      <trkpt lat="40.70803" lon="41.67754">
        <ele>792.295323</ele>
        <time>2021-12-03T09:02:58.678Z</time>
      </trkpt>
      <trkpt lat="40.70601" lon="41.67685">
        <ele>800.305758</ele>
        <time>2021-12-03T09:04:01.742Z</time>
      </trkpt>
      <trkpt lat="40.70395" lon="41.67603">
        <ele>779.712833</ele>
        <time>2021-12-03T09:05:04.721Z</time>
      </trkpt>
      <trkpt lat="40.70188" lon="41.67591">
        <ele>763.278436</ele>
        <time>2021-12-03T09:06:13.678Z</time>
      </trkpt>
      <trkpt lat="40.69996" lon="41.67688">
        <ele>789.476538</ele>
        <time>2021-12-03T09:07:15.702Z</time>
      </trkpt>
      <trkpt lat="40.69831" lon="41.67848">
        <ele>809.894512</ele>
        <time>2021-12-03T09:08:19.694Z</time>
      </trkpt>
      <trkpt lat="40.69612" lon="41.67805">
        <ele>793.054941</ele>
        <time>2021-12-03T09:09:38.700Z</time>
      </trkpt>
      <trkpt lat="40.69416" lon="41.67721">
        <ele>799.933504</ele>
        <time>2021-12-03T09:10:43.692Z</time>
      </trkpt>
      <trkpt lat="40.69218" lon="41.67753">
        <ele>800.414297</ele>
        <time>2021-12-03T09:12:01.689Z</time>
      </trkpt>
      <trkpt lat="40.69012" lon="41.67766">
        <ele>797.674701</ele>
        <time>2021-12-03T09:13:15.731Z</time>
      </trkpt>
      <trkpt lat="40.68852" lon="41.67601">
        <ele>830.241265</ele>
        <time>2021-12-03T09:14:31.689Z</time>
      </trkpt>
      <trkpt lat="40.68723" lon="41.67371">
        <ele>819.877071</ele>
        <time>2021-12-03T09:19:19.685Z</time>
      </trkpt>
      <trkpt lat="40.68586" lon="41.67192">
        <ele>834.139028</ele>
        <time>2021-12-03T09:21:07.689Z</time>
      </trkpt>
      <trkpt lat="40.68398" lon="41.67096">
        <ele>838.473029</ele>
        <time>2021-12-03T09:23:58.699Z</time>
      </trkpt>
      <trkpt lat="40.6822" lon="41.67">
        <ele>844.907682</ele>
        <time>2021-12-03T09:26:40.725Z</time>
      </trkpt>
      <trkpt lat="40.68051" lon="41.66876">
        <ele>856.50053</ele>
        <time>2021-12-03T09:29:09.713Z</time>
      </trkpt>
      <trkpt lat="40.67898" lon="41.66705">
        <ele>875.645974</ele>
        <time>2021-12-03T09:32:00.725Z</time>
      </trkpt>
      <trkpt lat="40.67741" lon="41.66556">
        <ele>889.494652</ele>
        <time>2021-12-03T09:34:18.692Z</time>
      </trkpt>
      <trkpt lat="40.67568" lon="41.66439">
        <ele>903.972927</ele>
        <time>2021-12-03T09:36:36.705Z</time>
      </trkpt>
      <trkpt lat="40.67412" lon="41.6629">
        <ele>919.165715</ele>
        <time>2021-12-03T09:39:08.701Z</time>
      </trkpt>
      <trkpt lat="40.67222" lon="41.66252">
        <ele>946.464902</ele>
        <time>2021-12-03T09:47:46.707Z</time>
      </trkpt>
      <trkpt lat="40.6705" lon="41.66144">
        <ele>969.367579</ele>
        <time>2021-12-03T09:50:14.703Z</time>
      </trkpt>
      <trkpt lat="40.66876" lon="41.66044">
        <ele>984.764716</ele>
        <time>2021-12-03T09:52:48.730Z</time>
      </trkpt>
      <trkpt lat="40.66683" lon="41.6598">
        <ele>995.093204</ele>
        <time>2021-12-03T09:55:25.713Z</time>
      </trkpt>
      <trkpt lat="40.66501" lon="41.66061">
        <ele>1006.823684</ele>
        <time>2021-12-03T09:57:51.703Z</time>
      </trkpt>
      <trkpt lat="40.66337" lon="41.66128">
        <ele>1020.694255</ele>
        <time>2021-12-03T09:59:55.724Z</time>
      </trkpt>
      <trkpt lat="40.66306" lon="41.66388">
        <ele>1032.036601</ele>
        <time>2021-12-03T10:02:32.747Z</time>
      </trkpt>
      <trkpt lat="40.66158" lon="41.66512">
        <ele>1037.553126</ele>
        <time>2021-12-03T10:04:51.693Z</time>
      </trkpt>
      <trkpt lat="40.65971" lon="41.66393">
        <ele>1038.626926</ele>
        <time>2021-12-03T10:06:15.713Z</time>
      </trkpt>
      <trkpt lat="40.65753" lon="41.66334">
        <ele>1036.501197</ele>
        <time>2021-12-03T10:07:35.724Z</time>
      </trkpt>
      <trkpt lat="40.6576" lon="41.6656">
        <ele>1029.387522</ele>
        <time>2021-12-03T10:08:30.701Z</time>
      </trkpt>
      <trkpt lat="40.65931" lon="41.6671">
        <ele>1030.069371</ele>
        <time>2021-12-03T10:09:35.715Z</time>
      </trkpt>
      <trkpt lat="40.65989" lon="41.6678">
        <ele>1030.242772</ele>
        <time>2021-12-03T10:36:17.705Z</time>
      </trkpt>
      <trkpt lat="40.65829" lon="41.66606">
        <ele>1029.213984</ele>
        <time>2021-12-03T10:37:45.723Z</time>
      </trkpt>
      <trkpt lat="40.65733" lon="41.66379">
        <ele>1031.950551</ele>
        <time>2021-12-03T10:39:01.710Z</time>
      </trkpt>
      <trkpt lat="40.65645" lon="41.66139">
        <ele>1038.294735</ele>
        <time>2021-12-03T10:40:21.742Z</time>
      </trkpt>
      <trkpt lat="40.6577" lon="41.65853">
        <ele>1053.53171</ele>
        <time>2021-12-03T10:41:24.736Z</time>
      </trkpt>
      <trkpt lat="40.6577" lon="41.65585">
        <ele>1046.837834</ele>
        <time>2021-12-03T10:42:20.718Z</time>
      </trkpt>
      <trkpt lat="40.65709" lon="41.65325">
        <ele>1046.910194</ele>
        <time>2021-12-03T10:43:26.720Z</time>
      </trkpt>
      <trkpt lat="40.65816" lon="41.65089">
        <ele>1049.320447</ele>
        <time>2021-12-03T10:44:17.734Z</time>
      </trkpt>
      <trkpt lat="40.65741" lon="41.64874">
        <ele>1050.666746</ele>
        <time>2021-12-03T10:45:40.714Z</time>
      </trkpt>
      <trkpt lat="40.65582" lon="41.64708">
        <ele>1055.69575</ele>
        <time>2021-12-03T10:47:04.711Z</time>
      </trkpt>
      <trkpt lat="40.65394" lon="41.64583">
        <ele>1053.5474</ele>
        <time>2021-12-03T10:47:59.723Z</time>
      </trkpt>
      <trkpt lat="40.65304" lon="41.64259">
        <ele>1045.054413</ele>
        <time>2021-12-03T10:48:41.751Z</time>
      </trkpt>
      <trkpt lat="40.65345" lon="41.63971">
        <ele>1049.198341</ele>
        <time>2021-12-03T10:49:32.711Z</time>
      </trkpt>
      <trkpt lat="40.65369" lon="41.63693">
        <ele>1055.048396</ele>
        <time>2021-12-03T10:50:32.749Z</time>
      </trkpt>
      <trkpt lat="40.65205" lon="41.63546">
        <ele>1052.891881</ele>
        <time>2021-12-03T10:51:47.721Z</time>
      </trkpt>
      <trkpt lat="40.64996" lon="41.6352">
        <ele>1055.601544</ele>
        <time>2021-12-03T10:52:48.709Z</time>
      </trkpt>
      <trkpt lat="40.648" lon="41.63452">
        <ele>1062.184183</ele>
        <time>2021-12-03T10:54:24.757Z</time>
      </trkpt>
      <trkpt lat="40.64616" lon="41.63306">
        <ele>1065.831835</ele>
        <time>2021-12-03T10:55:39.729Z</time>
      </trkpt>
      <trkpt lat="40.64386" lon="41.63199">
        <ele>1060.641086</ele>
        <time>2021-12-03T10:56:38.721Z</time>
      </trkpt>
      <trkpt lat="40.64157" lon="41.631">
        <ele>1057.565747</ele>
        <time>2021-12-03T10:57:36.710Z</time>
      </trkpt>
      <trkpt lat="40.63925" lon="41.63069">
        <ele>1058.313866</ele>
        <time>2021-12-03T10:58:34.701Z</time>
      </trkpt>
      <trkpt lat="40.63724" lon="41.63014">
        <ele>1054.337629</ele>
        <time>2021-12-03T10:59:16.719Z</time>
      </trkpt>
      <trkpt lat="40.63514" lon="41.6302">
        <ele>1052.350758</ele>
        <time>2021-12-03T10:59:56.713Z</time>
      </trkpt>
      <trkpt lat="40.63311" lon="41.63121">
        <ele>1054.442423</ele>
        <time>2021-12-03T11:00:41.747Z</time>
      </trkpt>
      <trkpt lat="40.63104" lon="41.6323">
        <ele>1057.997064</ele>
        <time>2021-12-03T11:02:01.727Z</time>
      </trkpt>
      <trkpt lat="40.62909" lon="41.63154">
        <ele>1054.840449</ele>
        <time>2021-12-03T11:02:43.716Z</time>
      </trkpt>
      <trkpt lat="40.62694" lon="41.63097">
        <ele>1052.021097</ele>
        <time>2021-12-03T11:03:37.721Z</time>
      </trkpt>
      <trkpt lat="40.62486" lon="41.63088">
        <ele>1052.942894</ele>
        <time>2021-12-03T11:04:40.718Z</time>
      </trkpt>
      <trkpt lat="40.62272" lon="41.63013">
        <ele>1052.885732</ele>
        <time>2021-12-03T11:05:33.730Z</time>
      </trkpt>
      <trkpt lat="40.62078" lon="41.62949">
        <ele>1054.934428</ele>
        <time>2021-12-03T11:06:43.715Z</time>
      </trkpt>
      <trkpt lat="40.61895" lon="41.62806">
        <ele>1056.353058</ele>
        <time>2021-12-03T11:07:54.715Z</time>
      </trkpt>
      <trkpt lat="40.61689" lon="41.62814">
        <ele>1055.429296</ele>
        <time>2021-12-03T11:09:10.728Z</time>
      </trkpt>
      <trkpt lat="40.61483" lon="41.62824">
        <ele>1053.314782</ele>
        <time>2021-12-03T11:10:26.706Z</time>
      </trkpt>
      <trkpt lat="40.61307" lon="41.6276">
        <ele>1049.987474</ele>
        <time>2021-12-03T11:11:12.754Z</time>
      </trkpt>
      <trkpt lat="40.61129" lon="41.62666">
        <ele>1055.002717</ele>
        <time>2021-12-03T11:12:23.727Z</time>
      </trkpt>
      <trkpt lat="40.60995" lon="41.62666">
        <ele>1073.800884</ele>
        <time>2021-12-03T11:15:24.721Z</time>
      </trkpt>
      <trkpt lat="40.60878" lon="41.6249">
        <ele>1083.245077</ele>
        <time>2021-12-03T11:17:47.768Z</time>
      </trkpt>
      <trkpt lat="40.60715" lon="41.62366">
        <ele>1106.980102</ele>
        <time>2021-12-03T11:21:23.717Z</time>
      </trkpt>
      <trkpt lat="40.60528" lon="41.62371">
        <ele>1120.818832</ele>
        <time>2021-12-03T11:23:49.734Z</time>
      </trkpt>
      <trkpt lat="40.60366" lon="41.62223">
        <ele>1127.046082</ele>
        <time>2021-12-03T11:26:55.721Z</time>
      </trkpt>
      <trkpt lat="40.60237" lon="41.62023">
        <ele>1136.183339</ele>
        <time>2021-12-03T11:28:45.760Z</time>
      </trkpt>
      <trkpt lat="40.60199" lon="41.61783">
        <ele>1140.616383</ele>
        <time>2021-12-03T11:31:23.719Z</time>
      </trkpt>
      <trkpt lat="40.60051" lon="41.61575">
        <ele>1132.535521</ele>
        <time>2021-12-03T11:32:15.735Z</time>
      </trkpt>
      <trkpt lat="40.60003" lon="41.61646">
        <ele>1108.104838</ele>
        <time>2021-12-03T11:33:06.722Z</time>
      </trkpt>
      <trkpt lat="40.59933" lon="41.61405">
        <ele>1078.424251</ele>
        <time>2021-12-03T11:33:46.714Z</time>
      </trkpt>
      <trkpt lat="40.59816" lon="41.61176">
        <ele>1052.816041</ele>
        <time>2021-12-03T11:34:31.728Z</time>
      </trkpt>
      <trkpt lat="40.59595" lon="41.61133">
        <ele>1042.033607</ele>
        <time>2021-12-03T11:35:11.778Z</time>
      </trkpt>
      <trkpt lat="40.59392" lon="41.61139">
        <ele>1041.755718</ele>
        <time>2021-12-03T11:36:18.737Z</time>
      </trkpt>
      <trkpt lat="40.59178" lon="41.61082">
        <ele>1041.897729</ele>
        <time>2021-12-03T11:37:33.729Z</time>
      </trkpt>
      <trkpt lat="40.58969" lon="41.61016">
        <ele>1042.675676</ele>
        <time>2021-12-03T11:38:33.726Z</time>
      </trkpt>
      <trkpt lat="40.58756" lon="41.60916">
        <ele>1043.809581</ele>
        <time>2021-12-03T11:39:33.733Z</time>
      </trkpt>
      <trkpt lat="40.58569" lon="41.60785">
        <ele>1042.932069</ele>
        <time>2021-12-03T11:40:33.741Z</time>
      </trkpt>
      <trkpt lat="40.5837" lon="41.60643">
        <ele>1042.797581</ele>
        <time>2021-12-03T11:41:36.726Z</time>
      </trkpt>
      <trkpt lat="40.58177" lon="41.60506">
        <ele>1044.459677</ele>
        <time>2021-12-03T11:42:36.731Z</time>
      </trkpt>
      <trkpt lat="40.57983" lon="41.60369">
        <ele>1045.791688</ele>
        <time>2021-12-03T11:43:36.723Z</time>
      </trkpt>
      <trkpt lat="40.57783" lon="41.60231">
        <ele>1047.51692</ele>
        <time>2021-12-03T11:44:39.719Z</time>
      </trkpt>
      <trkpt lat="40.57595" lon="41.60106">
        <ele>1049.634237</ele>
        <time>2021-12-03T11:45:39.717Z</time>
      </trkpt>
      <trkpt lat="40.57411" lon="41.5998">
        <ele>1050.340104</ele>
        <time>2021-12-03T11:46:39.727Z</time>
      </trkpt>
      <trkpt lat="40.57218" lon="41.59848">
        <ele>1052.013938</ele>
        <time>2021-12-03T11:47:42.727Z</time>
      </trkpt>
      <trkpt lat="40.57032" lon="41.5972">
        <ele>1052.375082</ele>
        <time>2021-12-03T11:48:42.762Z</time>
      </trkpt>
      <trkpt lat="40.56852" lon="41.59578">
        <ele>1052.311517</ele>
        <time>2021-12-03T11:49:44.740Z</time>
      </trkpt>
      <trkpt lat="40.56685" lon="41.59434">
        <ele>1054.231725</ele>
        <time>2021-12-03T11:50:49.789Z</time>
      </trkpt>
      <trkpt lat="40.56502" lon="41.59276">
        <ele>1056.742702</ele>
        <time>2021-12-03T11:52:02.767Z</time>
      </trkpt>
      <trkpt lat="40.56312" lon="41.59168">
        <ele>1061.054262</ele>
        <time>2021-12-03T11:53:11.740Z</time>
      </trkpt>
      <trkpt lat="40.56107" lon="41.59153">
        <ele>1064.46422</ele>
        <time>2021-12-03T11:54:17.730Z</time>
      </trkpt>
      <trkpt lat="40.55916" lon="41.59052">
        <ele>1064.966142</ele>
        <time>2021-12-03T11:55:25.722Z</time>
      </trkpt>
      <trkpt lat="40.55798" lon="41.58846">
        <ele>1065.582143</ele>
        <time>2021-12-03T11:56:29.729Z</time>
      </trkpt>
      <trkpt lat="40.55741" lon="41.58586">
        <ele>1070.066961</ele>
        <time>2021-12-03T11:57:37.734Z</time>
      </trkpt>
      <trkpt lat="40.55649" lon="41.58333">
        <ele>1069.857816</ele>
        <time>2021-12-03T11:58:47.768Z</time>
      </trkpt>
      <trkpt lat="40.55509" lon="41.58133">
        <ele>1069.163827</ele>
        <time>2021-12-03T11:59:51.743Z</time>
      </trkpt>
      <trkpt lat="40.55367" lon="41.57945">
        <ele>1072.364331</ele>
        <time>2021-12-03T12:00:56.752Z</time>
      </trkpt>
      <trkpt lat="40.55193" lon="41.57809">
        <ele>1073.482499</ele>
        <time>2021-12-03T12:02:03.729Z</time>
      </trkpt>
      <trkpt lat="40.54997" lon="41.57687">
        <ele>1074.534032</ele>
        <time>2021-12-03T12:03:14.737Z</time>
      </trkpt>
      <trkpt lat="40.54874" lon="41.5747">
        <ele>1075.336827</ele>
        <time>2021-12-03T12:04:20.728Z</time>
      </trkpt>
      <trkpt lat="40.5478" lon="41.57236">
        <ele>1078.064902</ele>
        <time>2021-12-03T12:05:22.731Z</time>
      </trkpt>
      <trkpt lat="40.54717" lon="41.56975">
        <ele>1084.181746</ele>
        <time>2021-12-03T12:06:28.749Z</time>
      </trkpt>
      <trkpt lat="40.54652" lon="41.56709">
        <ele>1083.539937</ele>
        <time>2021-12-03T12:07:41.722Z</time>
      </trkpt>
      <trkpt lat="40.54519" lon="41.56493">
        <ele>1084.107163</ele>
        <time>2021-12-03T12:08:59.768Z</time>
      </trkpt>
      <trkpt lat="40.54343" lon="41.56335">
        <ele>1087.95453</ele>
        <time>2021-12-03T12:10:14.743Z</time>
      </trkpt>
      <trkpt lat="40.5423" lon="41.56092">
        <ele>1092.984343</ele>
        <time>2021-12-03T12:11:33.739Z</time>
      </trkpt>
      <trkpt lat="40.5422" lon="41.55799">
        <ele>1086.275019</ele>
        <time>2021-12-03T12:12:37.751Z</time>
      </trkpt>
      <trkpt lat="40.54174" lon="41.55561">
        <ele>1082.792167</ele>
        <time>2021-12-03T12:13:51.746Z</time>
      </trkpt>
      <trkpt lat="40.54068" lon="41.55319">
        <ele>1086.068618</ele>
        <time>2021-12-03T12:14:59.739Z</time>
      </trkpt>
      <trkpt lat="40.53943" lon="41.5511">
        <ele>1090.31254</ele>
        <time>2021-12-03T12:16:04.733Z</time>
      </trkpt>
      <trkpt lat="40.53805" lon="41.54908">
        <ele>1096.372343</ele>
        <time>2021-12-03T12:17:16.778Z</time>
      </trkpt>
      <trkpt lat="40.53625" lon="41.54748">
        <ele>1098.59396</ele>
        <time>2021-12-03T12:18:43.754Z</time>
      </trkpt>
      <trkpt lat="40.53444" lon="41.54612">
        <ele>1099.553998</ele>
        <time>2021-12-03T12:21:35.742Z</time>
      </trkpt>
      <trkpt lat="40.53355" lon="41.54538">
        <ele>1099.553998</ele>
        <time>2021-12-03T12:25:45.275Z</time>
      </trkpt>
    </trkseg>
  </trk>
</gpx>